sensor_id;sensor_type;location;lat;lon;timestamp;P1;durP1;ratioP1;P2;durP2;ratioP2
52208;SDS011;38507;53.132;6.394;2024-03-23T00:54:35;31.98;;;5.20;;
52208;SDS011;38507;53.132;6.394;2024-03-23T00:57:01;26.67;;;5.60;;
52208;SDS011;38507;53.132;6.394;2024-03-23T00:59:27;27.35;;;5.85;;
52208;SDS011;38507;53.132;6.394;2024-03-23T01:01:53;35.88;;;6.95;;
52208;SDS011;38507;53.132;6.394;2024-03-23T01:04:19;32.53;;;5.03;;
52208;SDS011;38507;53.132;6.394;2024-03-23T01:06:45;23.05;;;5.00;;
52208;SDS011;38507;53.132;6.394;2024-03-23T01:09:12;30.00;;;5.75;;
52208;SDS011;38507;53.132;6.394;2024-03-23T01:11:38;29.15;;;5.00;;
52208;SDS011;38507;53.132;6.394;2024-03-23T01:14:04;27.60;;;5.93;;
52208;SDS011;38507;53.132;6.394;2024-03-23T01:16:31;30.88;;;5.28;;
52208;SDS011;38507;53.132;6.394;2024-03-23T01:18:57;26.85;;;4.32;;
52208;SDS011;38507;53.132;6.394;2024-03-23T01:21:22;27.65;;;5.93;;
52208;SDS011;38507;53.132;6.394;2024-03-23T01:23:48;32.42;;;5.97;;
52208;SDS011;38507;53.132;6.394;2024-03-23T01:26:14;24.27;;;5.45;;
52208;SDS011;38507;53.132;6.394;2024-03-23T01:28:40;26.55;;;4.70;;
52208;SDS011;38507;53.132;6.394;2024-03-23T01:31:05;27.15;;;5.38;;
52208;SDS011;38507;53.132;6.394;2024-03-23T01:33:31;32.28;;;5.57;;
52208;SDS011;38507;53.132;6.394;2024-03-23T01:35:57;33.80;;;5.60;;
52208;SDS011;38507;53.132;6.394;2024-03-23T01:38:22;35.67;;;5.22;;
52208;SDS011;38507;53.132;6.394;2024-03-23T01:40:48;29.85;;;5.38;;
52208;SDS011;38507;53.132;6.394;2024-03-23T01:43:14;29.42;;;5.22;;
52208;SDS011;38507;53.132;6.394;2024-03-23T01:45:39;24.00;;;5.07;;
52208;SDS011;38507;53.132;6.394;2024-03-23T01:48:05;33.05;;;5.25;;
52208;SDS011;38507;53.132;6.394;2024-03-23T01:50:31;34.63;;;5.82;;
52208;SDS011;38507;53.132;6.394;2024-03-23T01:53:02;27.48;;;4.75;;
52208;SDS011;38507;53.132;6.394;2024-03-23T01:55:30;34.20;;;5.25;;
52208;SDS011;38507;53.132;6.394;2024-03-23T01:57:59;36.15;;;5.55;;
52208;SDS011;38507;53.132;6.394;2024-03-23T02:00:25;30.50;;;5.93;;
52208;SDS011;38507;53.132;6.394;2024-03-23T02:02:52;28.05;;;5.45;;
52208;SDS011;38507;53.132;6.394;2024-03-23T02:05:18;38.88;;;5.43;;
52208;SDS011;38507;53.132;6.394;2024-03-23T02:07:44;29.73;;;5.03;;
52208;SDS011;38507;53.132;6.394;2024-03-23T02:10:10;29.02;;;5.63;;
52208;SDS011;38507;53.132;6.394;2024-03-23T02:12:38;18.05;;;4.32;;
52208;SDS011;38507;53.132;6.394;2024-03-23T02:15:04;27.48;;;4.93;;
52208;SDS011;38507;53.132;6.394;2024-03-23T02:17:30;24.63;;;5.05;;
52208;SDS011;38507;53.132;6.394;2024-03-23T02:19:58;37.20;;;5.50;;
52208;SDS011;38507;53.132;6.394;2024-03-23T02:22:24;22.90;;;4.65;;
52208;SDS011;38507;53.132;6.394;2024-03-23T02:24:50;31.73;;;5.63;;
52208;SDS011;38507;53.132;6.394;2024-03-23T02:27:15;30.92;;;5.47;;
52208;SDS011;38507;53.132;6.394;2024-03-23T02:29:41;27.88;;;4.57;;
52208;SDS011;38507;53.132;6.394;2024-03-23T02:32:06;22.88;;;4.25;;
52208;SDS011;38507;53.132;6.394;2024-03-23T02:34:34;21.63;;;5.13;;
52208;SDS011;38507;53.132;6.394;2024-03-23T02:37:00;23.17;;;4.32;;
52208;SDS011;38507;53.132;6.394;2024-03-23T02:39:26;33.42;;;5.88;;
52208;SDS011;38507;53.132;6.394;2024-03-23T02:41:51;33.03;;;5.38;;
52208;SDS011;38507;53.132;6.394;2024-03-23T02:44:17;24.77;;;4.35;;
52208;SDS011;38507;53.132;6.394;2024-03-23T02:46:42;22.88;;;4.35;;
52208;SDS011;38507;53.132;6.394;2024-03-23T02:49:08;21.70;;;4.40;;
52208;SDS011;38507;53.132;6.394;2024-03-23T02:51:34;28.27;;;4.72;;
52208;SDS011;38507;53.132;6.394;2024-03-23T02:53:59;26.60;;;4.30;;
52208;SDS011;38507;53.132;6.394;2024-03-23T02:56:25;26.30;;;4.82;;
52208;SDS011;38507;53.132;6.394;2024-03-23T02:58:50;26.35;;;5.35;;
52208;SDS011;38507;53.132;6.394;2024-03-23T03:01:16;20.15;;;4.47;;
52208;SDS011;38507;53.132;6.394;2024-03-23T03:03:42;26.65;;;4.20;;
52208;SDS011;38507;53.132;6.394;2024-03-23T03:06:07;29.17;;;5.07;;
52208;SDS011;38507;53.132;6.394;2024-03-23T03:08:33;24.25;;;5.00;;
52208;SDS011;38507;53.132;6.394;2024-03-23T03:10:59;22.45;;;4.35;;
52208;SDS011;38507;53.132;6.394;2024-03-23T03:13:24;22.58;;;4.65;;
52208;SDS011;38507;53.132;6.394;2024-03-23T03:15:50;25.55;;;4.90;;
52208;SDS011;38507;53.132;6.394;2024-03-23T03:18:15;27.33;;;4.75;;
52208;SDS011;38507;53.132;6.394;2024-03-23T03:20:41;27.65;;;4.63;;
52208;SDS011;38507;53.132;6.394;2024-03-23T03:23:07;25.77;;;4.53;;
52208;SDS011;38507;53.132;6.394;2024-03-23T03:25:33;25.35;;;4.47;;
52208;SDS011;38507;53.132;6.394;2024-03-23T03:27:59;31.98;;;5.15;;
52208;SDS011;38507;53.132;6.394;2024-03-23T03:30:25;26.13;;;3.95;;
52208;SDS011;38507;53.132;6.394;2024-03-23T03:32:53;28.70;;;4.95;;
52208;SDS011;38507;53.132;6.394;2024-03-23T03:35:19;25.02;;;3.83;;
52208;SDS011;38507;53.132;6.394;2024-03-23T03:37:45;32.60;;;4.68;;
52208;SDS011;38507;53.132;6.394;2024-03-23T03:40:10;19.45;;;3.53;;
52208;SDS011;38507;53.132;6.394;2024-03-23T03:42:37;25.23;;;3.95;;
52208;SDS011;38507;53.132;6.394;2024-03-23T03:45:03;21.63;;;3.90;;
52208;SDS011;38507;53.132;6.394;2024-03-23T03:47:29;28.77;;;4.50;;
52208;SDS011;38507;53.132;6.394;2024-03-23T03:49:55;24.50;;;3.70;;
52208;SDS011;38507;53.132;6.394;2024-03-23T03:52:21;20.27;;;3.80;;
52208;SDS011;38507;53.132;6.394;2024-03-23T03:54:46;20.55;;;3.75;;
52208;SDS011;38507;53.132;6.394;2024-03-23T03:57:12;24.83;;;4.43;;
52208;SDS011;38507;53.132;6.394;2024-03-23T03:59:38;16.25;;;4.03;;
52208;SDS011;38507;53.132;6.394;2024-03-23T04:02:03;18.20;;;3.28;;
52208;SDS011;38507;53.132;6.394;2024-03-23T04:04:29;17.25;;;3.15;;
52208;SDS011;38507;53.132;6.394;2024-03-23T04:07:01;18.15;;;3.05;;
52208;SDS011;38507;53.132;6.394;2024-03-23T04:09:33;28.23;;;3.80;;
52208;SDS011;38507;53.132;6.394;2024-03-23T04:11:58;22.67;;;3.40;;
52208;SDS011;38507;53.132;6.394;2024-03-23T04:14:24;17.73;;;3.58;;
52208;SDS011;38507;53.132;6.394;2024-03-23T04:16:49;25.83;;;4.20;;
52208;SDS011;38507;53.132;6.394;2024-03-23T04:19:15;12.18;;;3.13;;
52208;SDS011;38507;53.132;6.394;2024-03-23T04:21:40;28.05;;;4.40;;
52208;SDS011;38507;53.132;6.394;2024-03-23T04:24:06;22.98;;;4.07;;
52208;SDS011;38507;53.132;6.394;2024-03-23T04:26:41;22.85;;;3.97;;
52208;SDS011;38507;53.132;6.394;2024-03-23T04:29:07;24.35;;;4.05;;
52208;SDS011;38507;53.132;6.394;2024-03-23T04:31:32;23.83;;;4.13;;
52208;SDS011;38507;53.132;6.394;2024-03-23T04:34:00;23.88;;;3.90;;
52208;SDS011;38507;53.132;6.394;2024-03-23T04:36:26;23.17;;;3.75;;
52208;SDS011;38507;53.132;6.394;2024-03-23T04:38:51;22.48;;;4.15;;
52208;SDS011;38507;53.132;6.394;2024-03-23T04:41:17;21.98;;;3.60;;
52208;SDS011;38507;53.132;6.394;2024-03-23T04:43:43;18.30;;;3.53;;
52208;SDS011;38507;53.132;6.394;2024-03-23T04:46:09;18.40;;;3.30;;
52208;SDS011;38507;53.132;6.394;2024-03-23T04:48:34;21.55;;;3.38;;
52208;SDS011;38507;53.132;6.394;2024-03-23T04:51:01;23.75;;;3.55;;
52208;SDS011;38507;53.132;6.394;2024-03-23T04:53:27;21.63;;;3.72;;
52208;SDS011;38507;53.132;6.394;2024-03-23T04:55:56;19.33;;;3.20;;
52208;SDS011;38507;53.132;6.394;2024-03-23T04:58:22;21.98;;;3.80;;
52208;SDS011;38507;53.132;6.394;2024-03-23T05:00:54;16.45;;;3.40;;
52208;SDS011;38507;53.132;6.394;2024-03-23T05:03:21;28.02;;;3.35;;
52208;SDS011;38507;53.132;6.394;2024-03-23T05:05:47;29.77;;;4.30;;
52208;SDS011;38507;53.132;6.394;2024-03-23T05:08:13;23.50;;;3.47;;
52208;SDS011;38507;53.132;6.394;2024-03-23T05:10:41;21.48;;;3.90;;
52208;SDS011;38507;53.132;6.394;2024-03-23T05:13:07;19.65;;;3.42;;
52208;SDS011;38507;53.132;6.394;2024-03-23T05:15:33;17.23;;;3.30;;
52208;SDS011;38507;53.132;6.394;2024-03-23T05:17:59;21.00;;;3.92;;
52208;SDS011;38507;53.132;6.394;2024-03-23T05:20:24;15.32;;;3.15;;
52208;SDS011;38507;53.132;6.394;2024-03-23T05:22:50;21.55;;;3.65;;
52208;SDS011;38507;53.132;6.394;2024-03-23T05:25:15;19.95;;;2.85;;
52208;SDS011;38507;53.132;6.394;2024-03-23T05:27:41;22.42;;;3.58;;
52208;SDS011;38507;53.132;6.394;2024-03-23T05:30:07;22.90;;;4.05;;
52208;SDS011;38507;53.132;6.394;2024-03-23T05:32:34;17.95;;;3.15;;
52208;SDS011;38507;53.132;6.394;2024-03-23T05:35:00;20.98;;;3.85;;
52208;SDS011;38507;53.132;6.394;2024-03-23T05:37:26;18.92;;;4.05;;
52208;SDS011;38507;53.132;6.394;2024-03-23T05:39:51;18.92;;;2.58;;
52208;SDS011;38507;53.132;6.394;2024-03-23T05:42:17;23.27;;;3.70;;
52208;SDS011;38507;53.132;6.394;2024-03-23T05:44:46;20.85;;;3.03;;
52208;SDS011;38507;53.132;6.394;2024-03-23T05:47:12;14.23;;;2.95;;
52208;SDS011;38507;53.132;6.394;2024-03-23T05:49:45;19.70;;;2.88;;
52208;SDS011;38507;53.132;6.394;2024-03-23T05:52:11;20.88;;;2.95;;
52208;SDS011;38507;53.132;6.394;2024-03-23T05:54:37;18.60;;;3.05;;
52208;SDS011;38507;53.132;6.394;2024-03-23T05:57:03;23.85;;;3.47;;
52208;SDS011;38507;53.132;6.394;2024-03-23T05:59:29;13.50;;;1.90;;
52208;SDS011;38507;53.132;6.394;2024-03-23T06:01:54;14.57;;;2.33;;
52208;SDS011;38507;53.132;6.394;2024-03-23T06:04:20;14.98;;;2.15;;
52208;SDS011;38507;53.132;6.394;2024-03-23T06:06:48;12.77;;;2.08;;
52208;SDS011;38507;53.132;6.394;2024-03-23T06:09:17;12.43;;;2.08;;
52208;SDS011;38507;53.132;6.394;2024-03-23T06:11:43;15.50;;;2.45;;
52208;SDS011;38507;53.132;6.394;2024-03-23T06:14:08;8.98;;;1.83;;
52208;SDS011;38507;53.132;6.394;2024-03-23T06:16:34;12.45;;;2.22;;
52208;SDS011;38507;53.132;6.394;2024-03-23T06:18:59;13.40;;;2.33;;
52208;SDS011;38507;53.132;6.394;2024-03-23T06:21:25;7.70;;;1.70;;
52208;SDS011;38507;53.132;6.394;2024-03-23T06:23:51;15.27;;;2.28;;
52208;SDS011;38507;53.132;6.394;2024-03-23T06:26:18;10.27;;;1.87;;
52208;SDS011;38507;53.132;6.394;2024-03-23T06:28:44;15.88;;;2.45;;
52208;SDS011;38507;53.132;6.394;2024-03-23T06:31:10;7.78;;;1.85;;
52208;SDS011;38507;53.132;6.394;2024-03-23T06:33:35;13.25;;;1.73;;
52208;SDS011;38507;53.132;6.394;2024-03-23T06:36:01;9.32;;;1.70;;
52208;SDS011;38507;53.132;6.394;2024-03-23T06:38:28;9.40;;;1.50;;
52208;SDS011;38507;53.132;6.394;2024-03-23T06:40:54;12.88;;;2.10;;
52208;SDS011;38507;53.132;6.394;2024-03-23T06:43:19;15.73;;;1.98;;
52208;SDS011;38507;53.132;6.394;2024-03-23T06:45:52;12.02;;;1.90;;
52208;SDS011;38507;53.132;6.394;2024-03-23T06:48:18;8.52;;;1.95;;
52208;SDS011;38507;53.132;6.394;2024-03-23T06:50:44;12.77;;;1.65;;
52208;SDS011;38507;53.132;6.394;2024-03-23T06:53:11;14.60;;;1.73;;
52208;SDS011;38507;53.132;6.394;2024-03-23T06:55:40;11.52;;;2.63;;
52208;SDS011;38507;53.132;6.394;2024-03-23T06:58:06;10.35;;;1.75;;
52208;SDS011;38507;53.132;6.394;2024-03-23T07:00:32;21.25;;;3.22;;
52208;SDS011;38507;53.132;6.394;2024-03-23T07:02:58;14.48;;;2.35;;
52208;SDS011;38507;53.132;6.394;2024-03-23T07:05:24;6.00;;;1.75;;
52208;SDS011;38507;53.132;6.394;2024-03-23T07:07:50;8.63;;;1.65;;
52208;SDS011;38507;53.132;6.394;2024-03-23T07:10:15;11.23;;;1.38;;
52208;SDS011;38507;53.132;6.394;2024-03-23T07:12:41;7.95;;;1.42;;
52208;SDS011;38507;53.132;6.394;2024-03-23T07:15:07;11.32;;;1.25;;
52208;SDS011;38507;53.132;6.394;2024-03-23T07:17:33;8.38;;;1.10;;
52208;SDS011;38507;53.132;6.394;2024-03-23T07:20:00;6.30;;;1.30;;
52208;SDS011;38507;53.132;6.394;2024-03-23T07:22:29;5.93;;;1.52;;
52208;SDS011;38507;53.132;6.394;2024-03-23T07:24:55;4.70;;;0.95;;
52208;SDS011;38507;53.132;6.394;2024-03-23T07:27:21;7.43;;;1.05;;
52208;SDS011;38507;53.132;6.394;2024-03-23T07:29:46;4.55;;;1.17;;
52208;SDS011;38507;53.132;6.394;2024-03-23T07:32:12;8.85;;;1.40;;
52208;SDS011;38507;53.132;6.394;2024-03-23T07:34:38;9.00;;;1.15;;
52208;SDS011;38507;53.132;6.394;2024-03-23T07:37:03;6.50;;;0.95;;
52208;SDS011;38507;53.132;6.394;2024-03-23T07:39:29;6.63;;;1.42;;
52208;SDS011;38507;53.132;6.394;2024-03-23T07:41:57;11.82;;;1.55;;
52208;SDS011;38507;53.132;6.394;2024-03-23T07:44:22;9.55;;;1.30;;
52208;SDS011;38507;53.132;6.394;2024-03-23T07:46:48;5.57;;;1.23;;
52208;SDS011;38507;53.132;6.394;2024-03-23T07:49:13;8.68;;;1.58;;
52208;SDS011;38507;53.132;6.394;2024-03-23T07:51:39;8.45;;;1.50;;
52208;SDS011;38507;53.132;6.394;2024-03-23T07:54:05;9.18;;;1.50;;
52208;SDS011;38507;53.132;6.394;2024-03-23T07:56:31;10.55;;;2.05;;
52208;SDS011;38507;53.132;6.394;2024-03-23T07:58:57;12.60;;;1.83;;
52208;SDS011;38507;53.132;6.394;2024-03-23T08:01:23;11.90;;;2.00;;
52208;SDS011;38507;53.132;6.394;2024-03-23T08:03:49;13.43;;;1.85;;
52208;SDS011;38507;53.132;6.394;2024-03-23T08:08:45;7.60;;;1.83;;
52208;SDS011;38507;53.132;6.394;2024-03-23T08:11:12;10.63;;;2.20;;
52208;SDS011;38507;53.132;6.394;2024-03-23T08:13:38;15.13;;;2.47;;
52208;SDS011;38507;53.132;6.394;2024-03-23T08:16:05;10.18;;;1.85;;
52208;SDS011;38507;53.132;6.394;2024-03-23T08:18:31;9.82;;;1.92;;
52208;SDS011;38507;53.132;6.394;2024-03-23T08:21:01;16.83;;;2.78;;
52208;SDS011;38507;53.132;6.394;2024-03-23T08:23:28;11.63;;;1.88;;
52208;SDS011;38507;53.132;6.394;2024-03-23T08:25:58;11.57;;;2.08;;
52208;SDS011;38507;53.132;6.394;2024-03-23T08:28:25;13.65;;;2.85;;
52208;SDS011;38507;53.132;6.394;2024-03-23T08:30:52;15.25;;;2.35;;
52208;SDS011;38507;53.132;6.394;2024-03-23T08:33:18;15.27;;;2.47;;
52208;SDS011;38507;53.132;6.394;2024-03-23T08:35:52;12.45;;;2.17;;
52208;SDS011;38507;53.132;6.394;2024-03-23T08:38:25;29.13;;;3.22;;
52208;SDS011;38507;53.132;6.394;2024-03-23T08:43:28;13.95;;;2.65;;
52208;SDS011;38507;53.132;6.394;2024-03-23T08:46:03;13.75;;;3.15;;
52208;SDS011;38507;53.132;6.394;2024-03-23T08:48:35;17.70;;;2.53;;
52208;SDS011;38507;53.132;6.394;2024-03-23T08:51:08;9.35;;;2.65;;
52208;SDS011;38507;53.132;6.394;2024-03-23T08:53:35;11.35;;;2.00;;
52208;SDS011;38507;53.132;6.394;2024-03-23T08:56:02;12.93;;;2.63;;
52208;SDS011;38507;53.132;6.394;2024-03-23T08:58:29;11.30;;;2.90;;
52208;SDS011;38507;53.132;6.394;2024-03-23T09:00:56;18.33;;;2.72;;
52208;SDS011;38507;53.132;6.394;2024-03-23T09:03:28;14.50;;;2.80;;
52208;SDS011;38507;53.132;6.394;2024-03-23T09:05:54;20.60;;;2.95;;
52208;SDS011;38507;53.132;6.394;2024-03-23T09:08:20;18.52;;;2.20;;
52208;SDS011;38507;53.132;6.394;2024-03-23T09:10:47;11.73;;;2.28;;
52208;SDS011;38507;53.132;6.394;2024-03-23T09:13:13;14.48;;;2.88;;
52208;SDS011;38507;53.132;6.394;2024-03-23T09:15:45;17.15;;;2.35;;
52208;SDS011;38507;53.132;6.394;2024-03-23T09:18:15;13.35;;;2.22;;
52208;SDS011;38507;53.132;6.394;2024-03-23T09:20:41;13.25;;;2.10;;
52208;SDS011;38507;53.132;6.394;2024-03-23T09:23:07;10.30;;;1.90;;
52208;SDS011;38507;53.132;6.394;2024-03-23T09:25:36;16.67;;;2.50;;
52208;SDS011;38507;53.132;6.394;2024-03-23T09:28:02;8.93;;;1.52;;
52208;SDS011;38507;53.132;6.394;2024-03-23T09:30:28;14.60;;;2.33;;
52208;SDS011;38507;53.132;6.394;2024-03-23T09:32:54;12.57;;;1.65;;
52208;SDS011;38507;53.132;6.394;2024-03-23T09:35:19;14.40;;;1.92;;
52208;SDS011;38507;53.132;6.394;2024-03-23T09:37:45;10.90;;;1.88;;
52208;SDS011;38507;53.132;6.394;2024-03-23T09:40:11;11.82;;;1.75;;
52208;SDS011;38507;53.132;6.394;2024-03-23T09:42:37;10.82;;;1.50;;
52208;SDS011;38507;53.132;6.394;2024-03-23T09:45:06;8.10;;;2.00;;
52208;SDS011;38507;53.132;6.394;2024-03-23T09:47:41;9.55;;;1.45;;
52208;SDS011;38507;53.132;6.394;2024-03-23T09:50:07;8.43;;;1.35;;
52208;SDS011;38507;53.132;6.394;2024-03-23T09:52:32;10.68;;;1.48;;
52208;SDS011;38507;53.132;6.394;2024-03-23T09:54:58;8.30;;;1.40;;
52208;SDS011;38507;53.132;6.394;2024-03-23T09:57:24;20.20;;;1.92;;
52208;SDS011;38507;53.132;6.394;2024-03-23T09:59:49;9.68;;;1.50;;
52208;SDS011;38507;53.132;6.394;2024-03-23T10:02:15;13.82;;;1.88;;
52208;SDS011;38507;53.132;6.394;2024-03-23T10:04:42;13.18;;;2.45;;
52208;SDS011;38507;53.132;6.394;2024-03-23T10:09:43;16.30;;;3.13;;
52208;SDS011;38507;53.132;6.394;2024-03-23T10:12:12;12.20;;;2.20;;
52208;SDS011;38507;53.132;6.394;2024-03-23T10:14:39;14.40;;;2.63;;
52208;SDS011;38507;53.132;6.394;2024-03-23T10:17:38;13.57;;;1.90;;
52208;SDS011;38507;53.132;6.394;2024-03-23T10:19:56;12.18;;;2.15;;
52208;SDS011;38507;53.132;6.394;2024-03-23T10:22:22;16.08;;;2.35;;
52208;SDS011;38507;53.132;6.394;2024-03-23T10:24:49;14.93;;;2.40;;
52208;SDS011;38507;53.132;6.394;2024-03-23T10:27:16;16.10;;;2.17;;
52208;SDS011;38507;53.132;6.394;2024-03-23T10:29:46;12.05;;;1.63;;
52208;SDS011;38507;53.132;6.394;2024-03-23T10:32:18;12.60;;;2.08;;
52208;SDS011;38507;53.132;6.394;2024-03-23T10:34:44;10.77;;;1.88;;
52208;SDS011;38507;53.132;6.394;2024-03-23T10:37:10;17.30;;;1.98;;
52208;SDS011;38507;53.132;6.394;2024-03-23T10:39:38;14.63;;;2.13;;
52208;SDS011;38507;53.132;6.394;2024-03-23T10:42:07;9.57;;;2.28;;
52208;SDS011;38507;53.132;6.394;2024-03-23T10:44:36;12.30;;;2.20;;
52208;SDS011;38507;53.132;6.394;2024-03-23T10:47:02;11.98;;;2.15;;
52208;SDS011;38507;53.132;6.394;2024-03-23T10:49:31;16.88;;;2.22;;
52208;SDS011;38507;53.132;6.394;2024-03-23T10:51:58;6.70;;;1.25;;
52208;SDS011;38507;53.132;6.394;2024-03-23T10:54:25;7.35;;;1.38;;
52208;SDS011;38507;53.132;6.394;2024-03-23T10:59:38;8.18;;;1.60;;
52208;SDS011;38507;53.132;6.394;2024-03-23T11:02:05;9.95;;;2.03;;
52208;SDS011;38507;53.132;6.394;2024-03-23T11:04:33;9.75;;;1.70;;
52208;SDS011;38507;53.132;6.394;2024-03-23T11:07:01;10.32;;;1.67;;
52208;SDS011;38507;53.132;6.394;2024-03-23T11:09:42;6.97;;;1.60;;
52208;SDS011;38507;53.132;6.394;2024-03-23T11:14:50;10.85;;;2.10;;
52208;SDS011;38507;53.132;6.394;2024-03-23T11:17:17;8.90;;;1.92;;
52208;SDS011;38507;53.132;6.394;2024-03-23T11:19:44;10.32;;;1.90;;
52208;SDS011;38507;53.132;6.394;2024-03-23T11:22:17;6.47;;;1.30;;
52208;SDS011;38507;53.132;6.394;2024-03-23T11:25:21;13.07;;;1.85;;
52208;SDS011;38507;53.132;6.394;2024-03-23T11:27:58;8.88;;;2.45;;
52208;SDS011;38507;53.132;6.394;2024-03-23T11:30:35;11.43;;;1.90;;
52208;SDS011;38507;53.132;6.394;2024-03-23T11:33:02;8.77;;;1.60;;
52208;SDS011;38507;53.132;6.394;2024-03-23T11:35:28;10.05;;;1.50;;
52208;SDS011;38507;53.132;6.394;2024-03-23T11:40:35;9.68;;;1.50;;
52208;SDS011;38507;53.132;6.394;2024-03-23T11:43:02;11.05;;;1.88;;
52208;SDS011;38507;53.132;6.394;2024-03-23T11:45:33;8.52;;;1.40;;
52208;SDS011;38507;53.132;6.394;2024-03-23T11:48:18;11.10;;;1.83;;
52208;SDS011;38507;53.132;6.394;2024-03-23T11:50:49;8.77;;;1.42;;
52208;SDS011;38507;53.132;6.394;2024-03-23T11:53:16;8.70;;;1.27;;
52208;SDS011;38507;53.132;6.394;2024-03-23T11:55:47;7.78;;;1.23;;
52208;SDS011;38507;53.132;6.394;2024-03-23T11:58:17;8.93;;;1.10;;
52208;SDS011;38507;53.132;6.394;2024-03-23T12:00:50;8.90;;;1.25;;
52208;SDS011;38507;53.132;6.394;2024-03-23T12:03:17;8.65;;;1.20;;
52208;SDS011;38507;53.132;6.394;2024-03-23T12:05:50;5.05;;;1.10;;
52208;SDS011;38507;53.132;6.394;2024-03-23T12:08:23;3.78;;;1.13;;
52208;SDS011;38507;53.132;6.394;2024-03-23T12:10:51;9.32;;;1.20;;
52208;SDS011;38507;53.132;6.394;2024-03-23T12:13:21;9.73;;;0.88;;
52208;SDS011;38507;53.132;6.394;2024-03-23T12:15:48;6.05;;;1.08;;
52208;SDS011;38507;53.132;6.394;2024-03-23T12:18:15;5.18;;;1.17;;
52208;SDS011;38507;53.132;6.394;2024-03-23T12:20:41;5.75;;;0.93;;
52208;SDS011;38507;53.132;6.394;2024-03-23T12:23:08;11.25;;;1.45;;
52208;SDS011;38507;53.132;6.394;2024-03-23T12:25:36;7.28;;;1.30;;
52208;SDS011;38507;53.132;6.394;2024-03-23T12:28:02;6.38;;;1.13;;
52208;SDS011;38507;53.132;6.394;2024-03-23T12:30:31;9.15;;;0.93;;
52208;SDS011;38507;53.132;6.394;2024-03-23T12:32:57;9.13;;;1.05;;
52208;SDS011;38507;53.132;6.394;2024-03-23T12:35:23;7.65;;;0.90;;
52208;SDS011;38507;53.132;6.394;2024-03-23T12:37:48;7.60;;;1.23;;
52208;SDS011;38507;53.132;6.394;2024-03-23T12:40:14;6.15;;;1.67;;
52208;SDS011;38507;53.132;6.394;2024-03-23T12:42:39;7.72;;;0.70;;
52208;SDS011;38507;53.132;6.394;2024-03-23T12:45:05;6.03;;;1.05;;
52208;SDS011;38507;53.132;6.394;2024-03-23T12:47:31;9.52;;;1.25;;
52208;SDS011;38507;53.132;6.394;2024-03-23T12:49:57;5.43;;;0.85;;
52208;SDS011;38507;53.132;6.394;2024-03-23T12:52:22;7.63;;;0.85;;
52208;SDS011;38507;53.132;6.394;2024-03-23T12:54:53;3.08;;;0.80;;
52208;SDS011;38507;53.132;6.394;2024-03-23T12:57:25;3.60;;;0.65;;
52208;SDS011;38507;53.132;6.394;2024-03-23T12:59:51;8.02;;;1.10;;
52208;SDS011;38507;53.132;6.394;2024-03-23T13:02:19;8.68;;;1.10;;
52208;SDS011;38507;53.132;6.394;2024-03-23T13:04:46;5.03;;;0.70;;
52208;SDS011;38507;53.132;6.394;2024-03-23T13:07:15;4.80;;;0.93;;
52208;SDS011;38507;53.132;6.394;2024-03-23T13:09:41;7.35;;;1.13;;
52208;SDS011;38507;53.132;6.394;2024-03-23T13:12:07;9.20;;;1.83;;
52208;SDS011;38507;53.132;6.394;2024-03-23T13:14:33;8.70;;;1.92;;
52208;SDS011;38507;53.132;6.394;2024-03-23T13:16:59;9.07;;;1.67;;
52208;SDS011;38507;53.132;6.394;2024-03-23T13:19:24;16.45;;;1.90;;
52208;SDS011;38507;53.132;6.394;2024-03-23T13:21:55;13.23;;;1.88;;
52208;SDS011;38507;53.132;6.394;2024-03-23T13:24:22;13.63;;;2.28;;
52208;SDS011;38507;53.132;6.394;2024-03-23T13:26:49;11.60;;;1.70;;
52208;SDS011;38507;53.132;6.394;2024-03-23T13:29:16;14.68;;;2.28;;
52208;SDS011;38507;53.132;6.394;2024-03-23T13:31:41;13.18;;;2.15;;
52208;SDS011;38507;53.132;6.394;2024-03-23T13:34:07;13.80;;;2.53;;
52208;SDS011;38507;53.132;6.394;2024-03-23T13:36:33;15.05;;;1.85;;
52208;SDS011;38507;53.132;6.394;2024-03-23T13:38:58;9.82;;;2.25;;
52208;SDS011;38507;53.132;6.394;2024-03-23T13:41:24;12.32;;;2.70;;
52208;SDS011;38507;53.132;6.394;2024-03-23T13:43:50;9.75;;;1.73;;
52208;SDS011;38507;53.132;6.394;2024-03-23T13:46:15;12.05;;;2.08;;
52208;SDS011;38507;53.132;6.394;2024-03-23T13:48:41;13.57;;;2.63;;
52208;SDS011;38507;53.132;6.394;2024-03-23T13:51:07;12.85;;;1.65;;
52208;SDS011;38507;53.132;6.394;2024-03-23T13:53:33;12.00;;;1.83;;
52208;SDS011;38507;53.132;6.394;2024-03-23T13:55:58;17.45;;;2.45;;
52208;SDS011;38507;53.132;6.394;2024-03-23T13:58:24;12.43;;;2.10;;
52208;SDS011;38507;53.132;6.394;2024-03-23T14:00:52;14.07;;;2.05;;
52208;SDS011;38507;53.132;6.394;2024-03-23T14:03:18;16.38;;;2.55;;
52208;SDS011;38507;53.132;6.394;2024-03-23T14:05:44;9.73;;;2.00;;
52208;SDS011;38507;53.132;6.394;2024-03-23T14:08:12;11.27;;;1.98;;
52208;SDS011;38507;53.132;6.394;2024-03-23T14:10:40;17.50;;;2.05;;
52208;SDS011;38507;53.132;6.394;2024-03-23T14:13:06;9.38;;;1.65;;
52208;SDS011;38507;53.132;6.394;2024-03-23T14:15:32;7.00;;;1.33;;
52208;SDS011;38507;53.132;6.394;2024-03-23T14:17:58;11.55;;;1.85;;
52208;SDS011;38507;53.132;6.394;2024-03-23T14:20:25;9.40;;;1.63;;
52208;SDS011;38507;53.132;6.394;2024-03-23T14:22:51;9.55;;;1.60;;
52208;SDS011;38507;53.132;6.394;2024-03-23T14:25:16;12.20;;;2.22;;
52208;SDS011;38507;53.132;6.394;2024-03-23T14:27:45;9.65;;;1.90;;
52208;SDS011;38507;53.132;6.394;2024-03-23T14:30:11;14.85;;;2.42;;
52208;SDS011;38507;53.132;6.394;2024-03-23T14:32:38;12.65;;;2.00;;
52208;SDS011;38507;53.132;6.394;2024-03-23T14:35:05;12.50;;;1.83;;
52208;SDS011;38507;53.132;6.394;2024-03-23T14:37:32;19.50;;;2.47;;
52208;SDS011;38507;53.132;6.394;2024-03-23T14:39:58;18.92;;;2.20;;
52208;SDS011;38507;53.132;6.394;2024-03-23T14:42:24;15.30;;;2.45;;
52208;SDS011;38507;53.132;6.394;2024-03-23T14:44:50;11.38;;;1.75;;
52208;SDS011;38507;53.132;6.394;2024-03-23T14:47:16;14.93;;;2.53;;
52208;SDS011;38507;53.132;6.394;2024-03-23T14:49:42;11.25;;;1.42;;
52208;SDS011;38507;53.132;6.394;2024-03-23T14:52:12;11.25;;;2.05;;
52208;SDS011;38507;53.132;6.394;2024-03-23T14:54:38;6.90;;;1.40;;
52208;SDS011;38507;53.132;6.394;2024-03-23T14:57:04;5.22;;;0.98;;
52208;SDS011;38507;53.132;6.394;2024-03-23T14:59:31;8.07;;;1.52;;
52208;SDS011;38507;53.132;6.394;2024-03-23T15:01:57;7.45;;;1.10;;
52208;SDS011;38507;53.132;6.394;2024-03-23T15:04:23;10.13;;;1.58;;
52208;SDS011;38507;53.132;6.394;2024-03-23T15:06:49;10.85;;;1.70;;
52208;SDS011;38507;53.132;6.394;2024-03-23T15:09:15;15.82;;;2.22;;
52208;SDS011;38507;53.132;6.394;2024-03-23T15:11:41;12.80;;;2.05;;
52208;SDS011;38507;53.132;6.394;2024-03-23T15:14:06;10.65;;;1.55;;
52208;SDS011;38507;53.132;6.394;2024-03-23T15:16:32;12.77;;;1.70;;
52208;SDS011;38507;53.132;6.394;2024-03-23T15:18:58;11.15;;;1.75;;
52208;SDS011;38507;53.132;6.394;2024-03-23T15:21:24;12.32;;;2.30;;
52208;SDS011;38507;53.132;6.394;2024-03-23T15:23:49;10.50;;;1.85;;
52208;SDS011;38507;53.132;6.394;2024-03-23T15:26:15;10.68;;;1.65;;
52208;SDS011;38507;53.132;6.394;2024-03-23T15:28:47;11.55;;;1.80;;
52208;SDS011;38507;53.132;6.394;2024-03-23T15:31:22;16.15;;;2.20;;
52208;SDS011;38507;53.132;6.394;2024-03-23T15:33:48;13.00;;;2.63;;
52208;SDS011;38507;53.132;6.394;2024-03-23T15:36:14;11.27;;;1.77;;
52208;SDS011;38507;53.132;6.394;2024-03-23T15:38:39;13.32;;;2.20;;
52208;SDS011;38507;53.132;6.394;2024-03-23T15:41:05;10.35;;;1.73;;
52208;SDS011;38507;53.132;6.394;2024-03-23T15:43:31;16.23;;;2.28;;
52208;SDS011;38507;53.132;6.394;2024-03-23T15:48:29;11.55;;;1.63;;